sensor_id;sensor_type;location;lat;lon;timestamp;P1;durP1;ratioP1;P2;durP2;ratioP2
43809;SDS011;29440;48.208;11.162;2023-06-10T00:00:39;8.15;;;6.55;;
43809;SDS011;29440;48.208;11.162;2023-06-10T00:03:09;7.22;;;6.47;;
43809;SDS011;29440;48.208;11.162;2023-06-10T00:05:35;7.40;;;6.22;;
43809;SDS011;29440;48.208;11.162;2023-06-10T00:08:03;7.35;;;6.35;;
43809;SDS011;29440;48.208;11.162;2023-06-10T00:10:33;8.70;;;6.00;;
43809;SDS011;29440;48.208;11.162;2023-06-10T00:13:03;8.52;;;6.22;;
43809;SDS011;29440;48.208;11.162;2023-06-10T00:15:29;8.70;;;6.80;;
43809;SDS011;29440;48.208;11.162;2023-06-10T00:17:54;9.35;;;7.07;;
43809;SDS011;29440;48.208;11.162;2023-06-10T00:20:20;8.15;;;6.72;;
43809;SDS011;29440;48.208;11.162;2023-06-10T00:22:49;8.07;;;6.47;;
43809;SDS011;29440;48.208;11.162;2023-06-10T00:25:15;10.77;;;6.55;;
43809;SDS011;29440;48.208;11.162;2023-06-10T00:27:40;10.40;;;7.00;;
43809;SDS011;29440;48.208;11.162;2023-06-10T00:30:06;9.35;;;6.70;;
43809;SDS011;29440;48.208;11.162;2023-06-10T00:32:33;8.55;;;6.53;;
43809;SDS011;29440;48.208;11.162;2023-06-10T00:34:58;8.57;;;6.55;;
43809;SDS011;29440;48.208;11.162;2023-06-10T00:37:24;7.97;;;6.07;;
43809;SDS011;29440;48.208;11.162;2023-06-10T00:39:50;7.55;;;6.75;;
43809;SDS011;29440;48.208;11.162;2023-06-10T00:42:16;9.82;;;6.80;;
43809;SDS011;29440;48.208;11.162;2023-06-10T00:44:41;8.13;;;6.55;;
43809;SDS011;29440;48.208;11.162;2023-06-10T00:47:07;7.50;;;6.10;;
43809;SDS011;29440;48.208;11.162;2023-06-10T00:49:33;7.13;;;6.22;;
43809;SDS011;29440;48.208;11.162;2023-06-10T00:51:59;7.25;;;5.93;;
43809;SDS011;29440;48.208;11.162;2023-06-10T00:54:25;8.25;;;6.22;;
43809;SDS011;29440;48.208;11.162;2023-06-10T00:56:51;7.38;;;6.10;;
43809;SDS011;29440;48.208;11.162;2023-06-10T00:59:18;7.60;;;5.82;;
43809;SDS011;29440;48.208;11.162;2023-06-10T01:01:43;6.45;;;5.85;;
43809;SDS011;29440;48.208;11.162;2023-06-10T01:04:12;7.45;;;5.75;;
43809;SDS011;29440;48.208;11.162;2023-06-10T01:14:47;9.52;;;6.45;;
43809;SDS011;29440;48.208;11.162;2023-06-10T01:17:13;8.55;;;6.70;;
43809;SDS011;29440;48.208;11.162;2023-06-10T01:19:41;10.60;;;6.05;;
43809;SDS011;29440;48.208;11.162;2023-06-10T01:22:08;9.38;;;6.97;;
43809;SDS011;29440;48.208;11.162;2023-06-10T01:24:36;8.60;;;5.60;;
43809;SDS011;29440;48.208;11.162;2023-06-10T01:27:05;7.18;;;6.05;;
43809;SDS011;29440;48.208;11.162;2023-06-10T01:29:37;9.02;;;6.57;;
43809;SDS011;29440;48.208;11.162;2023-06-10T01:32:17;10.13;;;5.80;;
43809;SDS011;29440;48.208;11.162;2023-06-10T01:34:47;7.40;;;6.60;;
43809;SDS011;29440;48.208;11.162;2023-06-10T01:37:16;9.57;;;6.97;;
43809;SDS011;29440;48.208;11.162;2023-06-10T01:39:43;8.88;;;7.05;;
43809;SDS011;29440;48.208;11.162;2023-06-10T01:42:11;9.65;;;7.28;;
43809;SDS011;29440;48.208;11.162;2023-06-10T01:44:38;9.43;;;6.85;;
43809;SDS011;29440;48.208;11.162;2023-06-10T01:47:04;11.38;;;7.28;;
43809;SDS011;29440;48.208;11.162;2023-06-10T01:49:30;9.57;;;7.45;;
43809;SDS011;29440;48.208;11.162;2023-06-10T01:51:55;9.00;;;7.53;;
43809;SDS011;29440;48.208;11.162;2023-06-10T01:54:21;10.63;;;7.95;;
43809;SDS011;29440;48.208;11.162;2023-06-10T01:56:46;9.13;;;7.78;;
43809;SDS011;29440;48.208;11.162;2023-06-10T01:59:12;10.32;;;8.57;;
43809;SDS011;29440;48.208;11.162;2023-06-10T02:01:37;9.85;;;7.85;;
43809;SDS011;29440;48.208;11.162;2023-06-10T02:04:03;9.98;;;7.85;;
43809;SDS011;29440;48.208;11.162;2023-06-10T02:09:13;8.90;;;7.50;;
43809;SDS011;29440;48.208;11.162;2023-06-10T02:11:38;10.57;;;7.05;;
43809;SDS011;29440;48.208;11.162;2023-06-10T02:14:04;10.43;;;7.05;;
43809;SDS011;29440;48.208;11.162;2023-06-10T02:16:30;13.60;;;8.20;;
43809;SDS011;29440;48.208;11.162;2023-06-10T02:18:56;9.63;;;8.18;;
43809;SDS011;29440;48.208;11.162;2023-06-10T02:21:21;9.75;;;7.90;;
43809;SDS011;29440;48.208;11.162;2023-06-10T02:23:47;10.25;;;7.97;;
43809;SDS011;29440;48.208;11.162;2023-06-10T02:26:12;9.70;;;7.80;;
43809;SDS011;29440;48.208;11.162;2023-06-10T02:28:38;11.57;;;8.18;;
43809;SDS011;29440;48.208;11.162;2023-06-10T02:31:07;10.85;;;8.27;;
43809;SDS011;29440;48.208;11.162;2023-06-10T02:33:33;10.63;;;8.18;;
43809;SDS011;29440;48.208;11.162;2023-06-10T02:35:58;8.98;;;7.85;;
43809;SDS011;29440;48.208;11.162;2023-06-10T02:38:24;11.35;;;8.77;;
43809;SDS011;29440;48.208;11.162;2023-06-10T02:40:49;10.23;;;8.57;;
43809;SDS011;29440;48.208;11.162;2023-06-10T02:43:15;12.95;;;8.25;;
43809;SDS011;29440;48.208;11.162;2023-06-10T02:45:40;8.75;;;7.57;;
43809;SDS011;29440;48.208;11.162;2023-06-10T02:48:06;8.98;;;7.93;;
43809;SDS011;29440;48.208;11.162;2023-06-10T02:50:32;10.02;;;7.97;;
43809;SDS011;29440;48.208;11.162;2023-06-10T02:52:57;11.05;;;8.35;;
43809;SDS011;29440;48.208;11.162;2023-06-10T02:55:23;8.88;;;7.90;;
43809;SDS011;29440;48.208;11.162;2023-06-10T02:57:51;8.93;;;7.75;;
43809;SDS011;29440;48.208;11.162;2023-06-10T03:00:17;10.70;;;8.57;;
43809;SDS011;29440;48.208;11.162;2023-06-10T03:02:45;11.15;;;8.57;;
43809;SDS011;29440;48.208;11.162;2023-06-10T03:05:10;10.60;;;8.48;;
43809;SDS011;29440;48.208;11.162;2023-06-10T03:07:38;10.98;;;8.32;;
43809;SDS011;29440;48.208;11.162;2023-06-10T03:10:04;12.30;;;9.70;;
43809;SDS011;29440;48.208;11.162;2023-06-10T03:12:30;10.57;;;8.32;;
43809;SDS011;29440;48.208;11.162;2023-06-10T03:14:56;11.80;;;8.55;;
43809;SDS011;29440;48.208;11.162;2023-06-10T03:17:21;11.63;;;8.18;;
43809;SDS011;29440;48.208;11.162;2023-06-10T03:19:47;9.68;;;8.15;;
43809;SDS011;29440;48.208;11.162;2023-06-10T03:22:13;11.10;;;8.75;;
43809;SDS011;29440;48.208;11.162;2023-06-10T03:24:40;11.43;;;8.60;;
43809;SDS011;29440;48.208;11.162;2023-06-10T03:27:12;9.50;;;7.95;;
43809;SDS011;29440;48.208;11.162;2023-06-10T03:29:38;10.93;;;7.95;;
43809;SDS011;29440;48.208;11.162;2023-06-10T03:32:04;14.05;;;8.38;;
43809;SDS011;29440;48.208;11.162;2023-06-10T03:34:30;10.80;;;8.63;;
43809;SDS011;29440;48.208;11.162;2023-06-10T03:36:56;11.38;;;8.98;;
43809;SDS011;29440;48.208;11.162;2023-06-10T03:39:22;11.13;;;8.20;;
43809;SDS011;29440;48.208;11.162;2023-06-10T03:41:48;11.23;;;8.70;;
43809;SDS011;29440;48.208;11.162;2023-06-10T03:44:14;13.07;;;8.70;;
43809;SDS011;29440;48.208;11.162;2023-06-10T03:46:40;12.15;;;8.73;;
43809;SDS011;29440;48.208;11.162;2023-06-10T03:49:06;9.73;;;8.05;;
43809;SDS011;29440;48.208;11.162;2023-06-10T03:51:32;13.43;;;8.60;;
43809;SDS011;29440;48.208;11.162;2023-06-10T03:53:57;13.07;;;8.32;;
43809;SDS011;29440;48.208;11.162;2023-06-10T03:56:23;10.07;;;8.68;;
43809;SDS011;29440;48.208;11.162;2023-06-10T03:58:49;10.38;;;7.82;;
43809;SDS011;29440;48.208;11.162;2023-06-10T04:01:14;10.75;;;8.00;;
43809;SDS011;29440;48.208;11.162;2023-06-10T04:03:40;10.63;;;7.70;;
43809;SDS011;29440;48.208;11.162;2023-06-10T04:06:06;9.25;;;7.68;;
43809;SDS011;29440;48.208;11.162;2023-06-10T04:08:32;11.52;;;8.25;;
43809;SDS011;29440;48.208;11.162;2023-06-10T04:10:58;9.90;;;7.95;;
43809;SDS011;29440;48.208;11.162;2023-06-10T04:13:23;11.25;;;7.75;;
43809;SDS011;29440;48.208;11.162;2023-06-10T04:15:49;12.45;;;7.88;;
43809;SDS011;29440;48.208;11.162;2023-06-10T04:18:15;10.45;;;7.95;;
43809;SDS011;29440;48.208;11.162;2023-06-10T04:20:40;11.57;;;8.10;;
43809;SDS011;29440;48.208;11.162;2023-06-10T04:23:06;11.70;;;7.95;;
43809;SDS011;29440;48.208;11.162;2023-06-10T04:25:32;9.00;;;7.70;;
43809;SDS011;29440;48.208;11.162;2023-06-10T04:27:58;10.65;;;7.93;;
43809;SDS011;29440;48.208;11.162;2023-06-10T04:30:24;9.57;;;7.80;;
43809;SDS011;29440;48.208;11.162;2023-06-10T04:32:50;10.30;;;7.72;;
43809;SDS011;29440;48.208;11.162;2023-06-10T04:35:15;8.82;;;7.43;;
43809;SDS011;29440;48.208;11.162;2023-06-10T04:37:41;10.18;;;7.80;;
43809;SDS011;29440;48.208;11.162;2023-06-10T04:40:08;10.48;;;7.47;;
43809;SDS011;29440;48.208;11.162;2023-06-10T04:42:34;12.77;;;7.50;;
43809;SDS011;29440;48.208;11.162;2023-06-10T04:45:01;8.70;;;7.53;;
43809;SDS011;29440;48.208;11.162;2023-06-10T04:47:27;11.13;;;8.25;;
43809;SDS011;29440;48.208;11.162;2023-06-10T04:49:53;8.60;;;7.70;;
43809;SDS011;29440;48.208;11.162;2023-06-10T04:52:19;12.77;;;7.85;;
43809;SDS011;29440;48.208;11.162;2023-06-10T04:54:46;11.75;;;7.95;;
43809;SDS011;29440;48.208;11.162;2023-06-10T04:57:11;10.40;;;7.15;;
43809;SDS011;29440;48.208;11.162;2023-06-10T04:59:37;12.85;;;7.20;;
43809;SDS011;29440;48.208;11.162;2023-06-10T05:02:03;12.20;;;7.45;;
43809;SDS011;29440;48.208;11.162;2023-06-10T05:04:30;10.15;;;7.45;;
43809;SDS011;29440;48.208;11.162;2023-06-10T05:06:55;9.32;;;6.80;;
43809;SDS011;29440;48.208;11.162;2023-06-10T05:09:21;11.27;;;7.28;;
43809;SDS011;29440;48.208;11.162;2023-06-10T05:11:46;9.65;;;7.03;;
43809;SDS011;29440;48.208;11.162;2023-06-10T05:14:12;10.57;;;7.10;;
43809;SDS011;29440;48.208;11.162;2023-06-10T05:16:38;10.07;;;7.38;;
43809;SDS011;29440;48.208;11.162;2023-06-10T05:19:07;9.68;;;7.13;;
43809;SDS011;29440;48.208;11.162;2023-06-10T05:21:33;11.52;;;6.60;;
43809;SDS011;29440;48.208;11.162;2023-06-10T05:23:59;8.93;;;7.03;;
43809;SDS011;29440;48.208;11.162;2023-06-10T05:26:24;10.60;;;7.63;;
43809;SDS011;29440;48.208;11.162;2023-06-10T05:28:50;11.38;;;7.90;;
43809;SDS011;29440;48.208;11.162;2023-06-10T05:31:15;9.98;;;7.63;;
43809;SDS011;29440;48.208;11.162;2023-06-10T05:33:41;8.80;;;7.15;;
43809;SDS011;29440;48.208;11.162;2023-06-10T05:36:06;10.85;;;8.15;;
43809;SDS011;29440;48.208;11.162;2023-06-10T05:38:32;11.40;;;8.02;;
43809;SDS011;29440;48.208;11.162;2023-06-10T05:40:58;9.63;;;7.63;;
43809;SDS011;29440;48.208;11.162;2023-06-10T05:43:24;12.07;;;8.73;;
43809;SDS011;29440;48.208;11.162;2023-06-10T05:45:49;11.77;;;8.02;;
43809;SDS011;29440;48.208;11.162;2023-06-10T05:48:15;10.48;;;8.20;;
43809;SDS011;29440;48.208;11.162;2023-06-10T05:50:40;9.20;;;7.03;;
43809;SDS011;29440;48.208;11.162;2023-06-10T05:53:07;8.75;;;7.32;;
43809;SDS011;29440;48.208;11.162;2023-06-10T05:55:39;9.57;;;6.68;;
43809;SDS011;29440;48.208;11.162;2023-06-10T05:58:09;8.88;;;7.75;;
43809;SDS011;29440;48.208;11.162;2023-06-10T06:00:34;8.23;;;7.18;;
43809;SDS011;29440;48.208;11.162;2023-06-10T06:03:00;10.00;;;6.60;;
43809;SDS011;29440;48.208;11.162;2023-06-10T06:05:26;7.57;;;6.63;;
43809;SDS011;29440;48.208;11.162;2023-06-10T06:07:51;7.90;;;6.30;;
43809;SDS011;29440;48.208;11.162;2023-06-10T06:10:17;8.20;;;6.90;;
43809;SDS011;29440;48.208;11.162;2023-06-10T06:12:43;7.43;;;6.32;;
43809;SDS011;29440;48.208;11.162;2023-06-10T06:15:10;8.18;;;6.30;;
43809;SDS011;29440;48.208;11.162;2023-06-10T06:17:36;7.82;;;6.82;;
43809;SDS011;29440;48.208;11.162;2023-06-10T06:20:02;9.57;;;6.88;;
43809;SDS011;29440;48.208;11.162;2023-06-10T06:22:28;8.20;;;7.35;;
43809;SDS011;29440;48.208;11.162;2023-06-10T06:25:02;6.97;;;6.28;;
43809;SDS011;29440;48.208;11.162;2023-06-10T06:27:27;7.72;;;6.13;;
43809;SDS011;29440;48.208;11.162;2023-06-10T06:29:53;6.65;;;6.05;;
43809;SDS011;29440;48.208;11.162;2023-06-10T06:32:18;7.38;;;6.50;;
43809;SDS011;29440;48.208;11.162;2023-06-10T06:34:44;7.28;;;6.10;;
43809;SDS011;29440;48.208;11.162;2023-06-10T06:37:10;7.80;;;5.90;;
43809;SDS011;29440;48.208;11.162;2023-06-10T06:39:35;6.68;;;5.97;;
43809;SDS011;29440;48.208;11.162;2023-06-10T06:42:01;10.63;;;6.68;;
43809;SDS011;29440;48.208;11.162;2023-06-10T06:44:26;7.95;;;6.40;;
43809;SDS011;29440;48.208;11.162;2023-06-10T06:46:52;7.55;;;6.68;;
43809;SDS011;29440;48.208;11.162;2023-06-10T06:49:17;7.20;;;6.50;;
43809;SDS011;29440;48.208;11.162;2023-06-10T06:51:43;10.05;;;6.78;;
43809;SDS011;29440;48.208;11.162;2023-06-10T06:54:08;9.15;;;6.70;;
43809;SDS011;29440;48.208;11.162;2023-06-10T06:56:34;9.82;;;6.80;;
43809;SDS011;29440;48.208;11.162;2023-06-10T06:59:00;7.43;;;6.57;;
43809;SDS011;29440;48.208;11.162;2023-06-10T07:01:25;8.18;;;7.10;;
43809;SDS011;29440;48.208;11.162;2023-06-10T07:03:51;6.85;;;6.15;;
43809;SDS011;29440;48.208;11.162;2023-06-10T07:06:16;6.60;;;5.78;;
43809;SDS011;29440;48.208;11.162;2023-06-10T07:08:42;8.60;;;7.03;;
43809;SDS011;29440;48.208;11.162;2023-06-10T07:11:07;8.00;;;6.53;;
43809;SDS011;29440;48.208;11.162;2023-06-10T07:13:33;8.27;;;6.07;;
43809;SDS011;29440;48.208;11.162;2023-06-10T07:15:58;5.85;;;5.25;;
43809;SDS011;29440;48.208;11.162;2023-06-10T07:18:24;5.80;;;4.63;;
43809;SDS011;29440;48.208;11.162;2023-06-10T07:20:50;6.28;;;4.80;;
43809;SDS011;29440;48.208;11.162;2023-06-10T07:23:15;5.60;;;4.80;;
43809;SDS011;29440;48.208;11.162;2023-06-10T07:25:41;6.18;;;4.78;;
43809;SDS011;29440;48.208;11.162;2023-06-10T07:28:06;6.03;;;5.13;;
43809;SDS011;29440;48.208;11.162;2023-06-10T07:30:32;5.28;;;4.72;;
43809;SDS011;29440;48.208;11.162;2023-06-10T07:32:58;6.05;;;5.22;;
43809;SDS011;29440;48.208;11.162;2023-06-10T07:35:24;6.35;;;5.38;;
43809;SDS011;29440;48.208;11.162;2023-06-10T07:37:50;6.07;;;5.07;;
43809;SDS011;29440;48.208;11.162;2023-06-10T07:40:15;5.60;;;4.82;;
43809;SDS011;29440;48.208;11.162;2023-06-10T07:42:41;5.63;;;5.03;;
43809;SDS011;29440;48.208;11.162;2023-06-10T07:45:08;6.28;;;5.15;;
43809;SDS011;29440;48.208;11.162;2023-06-10T07:47:34;5.63;;;4.30;;
43809;SDS011;29440;48.208;11.162;2023-06-10T07:50:00;5.10;;;4.13;;
43809;SDS011;29440;48.208;11.162;2023-06-10T07:52:25;9.38;;;5.22;;
43809;SDS011;29440;48.208;11.162;2023-06-10T07:54:51;6.20;;;4.68;;
43809;SDS011;29440;48.208;11.162;2023-06-10T07:57:17;7.20;;;5.90;;
43809;SDS011;29440;48.208;11.162;2023-06-10T07:59:42;5.28;;;4.78;;
43809;SDS011;29440;48.208;11.162;2023-06-10T08:02:09;6.93;;;4.90;;
43809;SDS011;29440;48.208;11.162;2023-06-10T08:04:34;5.03;;;4.20;;
43809;SDS011;29440;48.208;11.162;2023-06-10T08:07:00;4.95;;;3.83;;
43809;SDS011;29440;48.208;11.162;2023-06-10T08:09:27;5.47;;;4.55;;
43809;SDS011;29440;48.208;11.162;2023-06-10T08:11:52;5.75;;;4.53;;
43809;SDS011;29440;48.208;11.162;2023-06-10T08:14:18;3.95;;;3.40;;
43809;SDS011;29440;48.208;11.162;2023-06-10T08:16:44;5.00;;;3.85;;
43809;SDS011;29440;48.208;11.162;2023-06-10T08:19:09;4.78;;;3.90;;
43809;SDS011;29440;48.208;11.162;2023-06-10T08:21:35;5.75;;;3.65;;
43809;SDS011;29440;48.208;11.162;2023-06-10T08:24:05;4.60;;;3.95;;
43809;SDS011;29440;48.208;11.162;2023-06-10T08:26:31;5.25;;;3.45;;
43809;SDS011;29440;48.208;11.162;2023-06-10T08:28:57;5.05;;;3.10;;
43809;SDS011;29440;48.208;11.162;2023-06-10T08:31:22;3.85;;;3.05;;
43809;SDS011;29440;48.208;11.162;2023-06-10T08:33:48;3.10;;;2.63;;
43809;SDS011;29440;48.208;11.162;2023-06-10T08:36:14;3.72;;;3.13;;
43809;SDS011;29440;48.208;11.162;2023-06-10T08:38:40;3.60;;;2.20;;
43809;SDS011;29440;48.208;11.162;2023-06-10T08:41:06;3.63;;;2.80;;
43809;SDS011;29440;48.208;11.162;2023-06-10T08:43:33;3.53;;;2.83;;
43809;SDS011;29440;48.208;11.162;2023-06-10T08:45:59;4.45;;;2.80;;
43809;SDS011;29440;48.208;11.162;2023-06-10T08:48:29;3.47;;;2.60;;
43809;SDS011;29440;48.208;11.162;2023-06-10T08:50:56;4.05;;;2.92;;
43809;SDS011;29440;48.208;11.162;2023-06-10T08:53:22;4.95;;;2.90;;
43809;SDS011;29440;48.208;11.162;2023-06-10T08:55:51;3.55;;;2.88;;
43809;SDS011;29440;48.208;11.162;2023-06-10T08:58:17;3.92;;;2.83;;
43809;SDS011;29440;48.208;11.162;2023-06-10T09:00:44;3.80;;;2.78;;
43809;SDS011;29440;48.208;11.162;2023-06-10T09:03:11;3.78;;;3.22;;
43809;SDS011;29440;48.208;11.162;2023-06-10T09:05:36;4.07;;;2.70;;
43809;SDS011;29440;48.208;11.162;2023-06-10T09:08:04;4.68;;;3.28;;
43809;SDS011;29440;48.208;11.162;2023-06-10T09:10:31;3.53;;;2.80;;
43809;SDS011;29440;48.208;11.162;2023-06-10T09:12:57;5.28;;;3.00;;
43809;SDS011;29440;48.208;11.162;2023-06-10T09:15:23;4.20;;;3.25;;
43809;SDS011;29440;48.208;11.162;2023-06-10T09:17:49;3.70;;;3.17;;
43809;SDS011;29440;48.208;11.162;2023-06-10T09:20:16;4.85;;;3.88;;
43809;SDS011;29440;48.208;11.162;2023-06-10T09:22:41;3.72;;;2.88;;
43809;SDS011;29440;48.208;11.162;2023-06-10T09:25:10;4.07;;;3.13;;
43809;SDS011;29440;48.208;11.162;2023-06-10T09:27:47;3.95;;;3.15;;
43809;SDS011;29440;48.208;11.162;2023-06-10T09:30:25;3.72;;;2.63;;
43809;SDS011;29440;48.208;11.162;2023-06-10T09:32:55;4.45;;;3.53;;
43809;SDS011;29440;48.208;11.162;2023-06-10T09:35:25;5.65;;;3.10;;
43809;SDS011;29440;48.208;11.162;2023-06-10T09:37:56;3.80;;;3.22;;
43809;SDS011;29440;48.208;11.162;2023-06-10T09:40:22;5.25;;;3.42;;
43809;SDS011;29440;48.208;11.162;2023-06-10T09:42:56;4.45;;;3.00;;
43809;SDS011;29440;48.208;11.162;2023-06-10T09:45:24;4.63;;;3.35;;
43809;SDS011;29440;48.208;11.162;2023-06-10T09:47:56;5.85;;;3.65;;
43809;SDS011;29440;48.208;11.162;2023-06-10T09:53:16;3.38;;;2.90;;
43809;SDS011;29440;48.208;11.162;2023-06-10T09:55:43;3.30;;;3.00;;
43809;SDS011;29440;48.208;11.162;2023-06-10T09:58:09;4.65;;;3.70;;
43809;SDS011;29440;48.208;11.162;2023-06-10T10:00:36;4.25;;;3.05;;
43809;SDS011;29440;48.208;11.162;2023-06-10T10:03:02;3.13;;;2.65;;
43809;SDS011;29440;48.208;11.162;2023-06-10T10:05:28;5.00;;;3.25;;
43809;SDS011;29440;48.208;11.162;2023-06-10T10:10:48;3.47;;;2.80;;
43809;SDS011;29440;48.208;11.162;2023-06-10T10:13:13;3.30;;;2.83;;
43809;SDS011;29440;48.208;11.162;2023-06-10T10:15:40;2.92;;;2.63;;
43809;SDS011;29440;48.208;11.162;2023-06-10T10:18:06;2.80;;;2.40;;
43809;SDS011;29440;48.208;11.162;2023-06-10T10:20:34;2.97;;;2.38;;
43809;SDS011;29440;48.208;11.162;2023-06-10T10:23:09;3.30;;;2.50;;
43809;SDS011;29440;48.208;11.162;2023-06-10T10:25:39;2.70;;;2.08;;
43809;SDS011;29440;48.208;11.162;2023-06-10T10:30:37;4.00;;;2.58;;
43809;SDS011;29440;48.208;11.162;2023-06-10T10:33:18;3.40;;;2.47;;
43809;SDS011;29440;48.208;11.162;2023-06-10T10:35:48;5.38;;;2.28;;
43809;SDS011;29440;48.208;11.162;2023-06-10T10:38:15;2.95;;;2.35;;
43809;SDS011;29440;48.208;11.162;2023-06-10T10:40:41;3.53;;;2.28;;
43809;SDS011;29440;48.208;11.162;2023-06-10T10:43:08;2.67;;;2.25;;
43809;SDS011;29440;48.208;11.162;2023-06-10T10:45:34;2.75;;;2.20;;
43809;SDS011;29440;48.208;11.162;2023-06-10T10:48:03;4.07;;;2.05;;
43809;SDS011;29440;48.208;11.162;2023-06-10T10:50:31;5.25;;;2.65;;
43809;SDS011;29440;48.208;11.162;2023-06-10T10:55:32;3.45;;;2.50;;
43809;SDS011;29440;48.208;11.162;2023-06-10T11:00:33;3.88;;;2.88;;
43809;SDS011;29440;48.208;11.162;2023-06-10T11:05:35;2.85;;;2.38;;
43809;SDS011;29440;48.208;11.162;2023-06-10T11:08:05;2.70;;;2.50;;
43809;SDS011;29440;48.208;11.162;2023-06-10T11:10:33;3.17;;;2.45;;
43809;SDS011;29440;48.208;11.162;2023-06-10T11:13:01;2.50;;;2.13;;
43809;SDS011;29440;48.208;11.162;2023-06-10T11:15:32;3.22;;;2.92;;
43809;SDS011;29440;48.208;11.162;2023-06-10T11:18:06;3.60;;;3.10;;
43809;SDS011;29440;48.208;11.162;2023-06-10T11:20:53;4.18;;;2.70;;
43809;SDS011;29440;48.208;11.162;2023-06-10T11:26:13;3.05;;;2.50;;
43809;SDS011;29440;48.208;11.162;2023-06-10T11:37:02;5.07;;;2.88;;
43809;SDS011;29440;48.208;11.162;2023-06-10T11:39:28;3.78;;;2.63;;
43809;SDS011;29440;48.208;11.162;2023-06-10T11:41:54;3.00;;;2.40;;
43809;SDS011;29440;48.208;11.162;2023-06-10T11:44:20;4.53;;;2.42;;
43809;SDS011;29440;48.208;11.162;2023-06-10T11:46:47;3.35;;;2.70;;
43809;SDS011;29440;48.208;11.162;2023-06-10T11:49:14;4.10;;;3.05;;
43809;SDS011;29440;48.208;11.162;2023-06-10T11:51:40;4.13;;;2.65;;
43809;SDS011;29440;48.208;11.162;2023-06-10T11:54:09;5.68;;;2.88;;
43809;SDS011;29440;48.208;11.162;2023-06-10T11:56:34;3.67;;;2.50;;
43809;SDS011;29440;48.208;11.162;2023-06-10T11:59:01;3.55;;;2.58;;
43809;SDS011;29440;48.208;11.162;2023-06-10T12:01:29;2.90;;;2.35;;
43809;SDS011;29440;48.208;11.162;2023-06-10T12:03:57;2.50;;;2.30;;
43809;SDS011;29440;48.208;11.162;2023-06-10T12:06:43;3.05;;;2.72;;
43809;SDS011;29440;48.208;11.162;2023-06-10T12:11:55;2.95;;;2.47;;
43809;SDS011;29440;48.208;11.162;2023-06-10T12:19:57;3.40;;;2.47;;
43809;SDS011;29440;48.208;11.162;2023-06-10T12:22:24;5.55;;;3.00;;
43809;SDS011;29440;48.208;11.162;2023-06-10T12:25:04;3.28;;;2.35;;
43809;SDS011;29440;48.208;11.162;2023-06-10T12:27:31;3.00;;;2.33;;
43809;SDS011;29440;48.208;11.162;2023-06-10T12:29:58;2.50;;;2.10;;
43809;SDS011;29440;48.208;11.162;2023-06-10T12:35:06;2.78;;;2.30;;
43809;SDS011;29440;48.208;11.162;2023-06-10T12:37:32;4.07;;;2.33;;
43809;SDS011;29440;48.208;11.162;2023-06-10T12:42:31;3.47;;;2.60;;
43809;SDS011;29440;48.208;11.162;2023-06-10T12:45:00;2.85;;;2.50;;
43809;SDS011;29440;48.208;11.162;2023-06-10T12:47:30;4.05;;;2.75;;
43809;SDS011;29440;48.208;11.162;2023-06-10T12:49:57;3.20;;;2.63;;
43809;SDS011;29440;48.208;11.162;2023-06-10T12:52:24;3.50;;;3.20;;
43809;SDS011;29440;48.208;11.162;2023-06-10T12:54:50;3.67;;;2.65;;
43809;SDS011;29440;48.208;11.162;2023-06-10T12:57:16;3.20;;;2.90;;
43809;SDS011;29440;48.208;11.162;2023-06-10T12:59:42;3.17;;;2.80;;
43809;SDS011;29440;48.208;11.162;2023-06-10T13:02:15;3.30;;;2.92;;
43809;SDS011;29440;48.208;11.162;2023-06-10T13:04:45;5.15;;;3.53;;
43809;SDS011;29440;48.208;11.162;2023-06-10T13:07:11;5.32;;;2.70;;
43809;SDS011;29440;48.208;11.162;2023-06-10T13:09:37;3.10;;;2.80;;
43809;SDS011;29440;48.208;11.162;2023-06-10T13:12:03;3.05;;;2.30;;
43809;SDS011;29440;48.208;11.162;2023-06-10T13:14:28;4.57;;;3.22;;
43809;SDS011;29440;48.208;11.162;2023-06-10T13:16:54;4.00;;;2.78;;
43809;SDS011;29440;48.208;11.162;2023-06-10T13:19:20;4.75;;;3.40;;
43809;SDS011;29440;48.208;11.162;2023-06-10T13:21:46;4.03;;;3.63;;
43809;SDS011;29440;48.208;11.162;2023-06-10T13:24:12;3.65;;;3.30;;
43809;SDS011;29440;48.208;11.162;2023-06-10T13:26:38;3.28;;;2.83;;
43809;SDS011;29440;48.208;11.162;2023-06-10T13:29:04;3.38;;;2.63;;
43809;SDS011;29440;48.208;11.162;2023-06-10T13:31:30;2.95;;;2.65;;
43809;SDS011;29440;48.208;11.162;2023-06-10T13:33:56;3.63;;;2.80;;
43809;SDS011;29440;48.208;11.162;2023-06-10T13:36:22;4.93;;;3.10;;
43809;SDS011;29440;48.208;11.162;2023-06-10T13:38:48;4.45;;;3.08;;
43809;SDS011;29440;48.208;11.162;2023-06-10T13:41:13;3.03;;;2.72;;
43809;SDS011;29440;48.208;11.162;2023-06-10T13:43:39;3.80;;;2.92;;
43809;SDS011;29440;48.208;11.162;2023-06-10T13:46:04;3.42;;;2.92;;
43809;SDS011;29440;48.208;11.162;2023-06-10T13:48:30;4.90;;;3.00;;
43809;SDS011;29440;48.208;11.162;2023-06-10T13:50:56;3.88;;;2.88;;
43809;SDS011;29440;48.208;11.162;2023-06-10T13:53:22;5.53;;;2.97;;
43809;SDS011;29440;48.208;11.162;2023-06-10T13:55:47;3.47;;;2.35;;
43809;SDS011;29440;48.208;11.162;2023-06-10T13:58:15;3.00;;;2.40;;
43809;SDS011;29440;48.208;11.162;2023-06-10T14:00:40;2.78;;;2.40;;
43809;SDS011;29440;48.208;11.162;2023-06-10T14:03:06;4.50;;;2.63;;
43809;SDS011;29440;48.208;11.162;2023-06-10T14:05:31;3.25;;;2.40;;
43809;SDS011;29440;48.208;11.162;2023-06-10T14:07:58;2.65;;;2.45;;
43809;SDS011;29440;48.208;11.162;2023-06-10T14:10:23;4.03;;;2.83;;
43809;SDS011;29440;48.208;11.162;2023-06-10T14:12:49;3.88;;;2.72;;
43809;SDS011;29440;48.208;11.162;2023-06-10T14:15:15;3.42;;;2.60;;
43809;SDS011;29440;48.208;11.162;2023-06-10T14:17:41;3.42;;;2.90;;
43809;SDS011;29440;48.208;11.162;2023-06-10T14:20:06;4.00;;;3.60;;
43809;SDS011;29440;48.208;11.162;2023-06-10T14:22:32;3.00;;;2.70;;
43809;SDS011;29440;48.208;11.162;2023-06-10T14:24:58;4.63;;;3.00;;
43809;SDS011;29440;48.208;11.162;2023-06-10T14:27:23;3.17;;;2.88;;
43809;SDS011;29440;48.208;11.162;2023-06-10T14:29:49;3.65;;;3.20;;
43809;SDS011;29440;48.208;11.162;2023-06-10T14:32:14;3.75;;;2.92;;
43809;SDS011;29440;48.208;11.162;2023-06-10T14:34:40;5.55;;;3.10;;
43809;SDS011;29440;48.208;11.162;2023-06-10T14:37:07;4.03;;;3.08;;
43809;SDS011;29440;48.208;11.162;2023-06-10T14:39:32;3.75;;;2.97;;
43809;SDS011;29440;48.208;11.162;2023-06-10T14:41:58;3.60;;;2.78;;
43809;SDS011;29440;48.208;11.162;2023-06-10T14:44:23;2.83;;;2.53;;
43809;SDS011;29440;48.208;11.162;2023-06-10T14:46:49;2.50;;;2.25;;
43809;SDS011;29440;48.208;11.162;2023-06-10T14:49:15;4.55;;;2.70;;
43809;SDS011;29440;48.208;11.162;2023-06-10T14:54:19;2.92;;;2.40;;
43809;SDS011;29440;48.208;11.162;2023-06-10T14:56:45;2.70;;;2.05;;
43809;SDS011;29440;48.208;11.162;2023-06-10T14:59:11;2.53;;;2.00;;
43809;SDS011;29440;48.208;11.162;2023-06-10T15:01:37;2.83;;;2.25;;
43809;SDS011;29440;48.208;11.162;2023-06-10T15:04:02;5.78;;;2.30;;
43809;SDS011;29440;48.208;11.162;2023-06-10T15:09:23;2.65;;;2.17;;
43809;SDS011;29440;48.208;11.162;2023-06-10T15:11:48;2.65;;;2.00;;
43809;SDS011;29440;48.208;11.162;2023-06-10T15:17:03;3.30;;;2.42;;
43809;SDS011;29440;48.208;11.162;2023-06-10T15:19:28;2.80;;;2.53;;
43809;SDS011;29440;48.208;11.162;2023-06-10T15:21:54;2.72;;;2.40;;
43809;SDS011;29440;48.208;11.162;2023-06-10T15:24:19;3.08;;;2.58;;
43809;SDS011;29440;48.208;11.162;2023-06-10T15:26:45;2.63;;;2.42;;